createdAt,value
2018-04-22T00:00:04.318Z,16.74
2018-04-22T00:02:15.428Z,16.77
2018-04-22T00:04:26.500Z,16.73
2018-04-22T00:06:37.634Z,16.72
2018-04-22T00:08:48.709Z,16.68
2018-04-22T00:10:59.920Z,16.66
2018-04-22T00:13:11.013Z,16.66
2018-04-22T00:15:22.077Z,16.72
2018-04-22T00:17:33.174Z,16.75
2018-04-22T00:19:44.286Z,16.80
2018-04-22T00:21:55.397Z,16.84
2018-04-22T00:24:06.513Z,16.87
2018-04-22T00:26:17.694Z,16.86
2018-04-22T00:28:28.778Z,16.84
2018-04-22T00:30:39.868Z,16.80
2018-04-22T00:32:50.951Z,16.76
2018-04-22T00:35:02.016Z,16.70
2018-04-22T00:37:13.149Z,16.66
2018-04-22T00:39:24.256Z,16.60
2018-04-22T00:41:35.365Z,16.58
2018-04-22T00:43:46.454Z,16.54
2018-04-22T00:45:57.573Z,16.52
2018-04-22T00:48:08.932Z,16.51
2018-04-22T00:50:19.986Z,16.52
2018-04-22T00:52:31.124Z,16.47
2018-04-22T00:54:42.192Z,16.44
2018-04-22T00:56:53.241Z,16.43
2018-04-22T00:59:04.303Z,16.41
2018-04-22T01:01:15.527Z,16.34
2018-04-22T01:03:26.583Z,16.29
2018-04-22T01:05:37.725Z,16.27
2018-04-22T01:07:48.797Z,16.22
2018-04-22T01:09:59.922Z,16.20
2018-04-22T01:12:11.001Z,16.12
2018-04-22T01:14:22.078Z,16.07
2018-04-22T01:16:33.154Z,16.06
2018-04-22T01:18:44.196Z,16.03
2018-04-22T01:20:55.347Z,16.04
2018-04-22T01:23:06.442Z,16.02
2018-04-22T01:25:17.672Z,15.99
2018-04-22T01:27:28.766Z,15.94
2018-04-22T01:29:39.908Z,15.78
2018-04-22T01:31:51.033Z,15.73
2018-04-22T01:34:02.078Z,15.69
2018-04-22T01:36:13.207Z,15.69
2018-04-22T01:38:24.330Z,15.68
2018-04-22T01:40:35.487Z,15.66
2018-04-22T01:42:46.613Z,15.57
2018-04-22T01:44:57.674Z,15.51
2018-04-22T01:47:08.730Z,15.49
2018-04-22T01:49:19.840Z,15.45
2018-04-22T01:51:30.907Z,15.42
2018-04-22T01:53:42.045Z,15.42
2018-04-22T01:55:53.149Z,15.41
2018-04-22T01:58:04.246Z,15.41
2018-04-22T02:00:15.302Z,15.44
2018-04-22T02:02:26.391Z,15.44
2018-04-22T02:04:37.517Z,15.42
2018-04-22T02:06:48.593Z,15.38
2018-04-22T02:08:59.859Z,15.36
2018-04-22T02:11:10.973Z,15.30
2018-04-22T02:13:22.157Z,15.27
2018-04-22T02:15:33.290Z,15.19
2018-04-22T02:17:44.434Z,15.16
2018-04-22T02:19:55.514Z,15.14
2018-04-22T02:22:06.578Z,15.09
2018-04-22T02:24:17.630Z,15.06
2018-04-22T02:26:28.678Z,15.01
2018-04-22T02:28:39.925Z,14.99
2018-04-22T02:30:50.966Z,14.98
2018-04-22T02:33:02.129Z,14.89
2018-04-22T02:35:13.355Z,14.82
2018-04-22T02:37:24.462Z,14.68
2018-04-22T02:39:35.528Z,14.64
2018-04-22T02:41:46.604Z,14.58
2018-04-22T02:43:57.674Z,14.54
2018-04-22T02:46:08.714Z,14.50
2018-04-22T02:48:19.978Z,14.47
2018-04-22T02:50:31.030Z,14.48
2018-04-22T02:52:42.177Z,14.51
2018-04-22T02:54:53.273Z,14.51
2018-04-22T02:57:04.362Z,14.53
2018-04-22T02:59:15.466Z,14.58
2018-04-22T03:01:26.519Z,14.56
2018-04-22T03:03:37.616Z,14.55
2018-04-22T03:05:49.649Z,14.51
2018-04-22T03:08:00.696Z,14.50
2018-04-22T03:10:12.367Z,14.47
2018-04-22T03:12:24.011Z,14.43
2018-04-22T03:14:35.071Z,14.40
2018-04-22T03:16:46.242Z,14.31
2018-04-22T03:18:57.318Z,14.23
2018-04-22T03:21:08.410Z,14.23
2018-04-22T03:23:19.482Z,14.24
2018-04-22T03:25:30.553Z,14.25
2018-04-22T03:27:41.725Z,14.26
2018-04-22T03:29:52.826Z,14.26
2018-04-22T03:32:03.975Z,14.27
2018-04-22T03:34:15.030Z,14.25
2018-04-22T03:36:26.118Z,14.23
2018-04-22T03:38:37.169Z,14.20
2018-04-22T03:40:48.273Z,14.18
2018-04-22T03:42:59.330Z,14.09
2018-04-22T03:45:10.418Z,14.00
2018-04-22T03:47:21.590Z,13.97
2018-04-22T03:49:32.644Z,14.01
2018-04-22T03:51:43.746Z,13.98
2018-04-22T03:53:54.854Z,13.95
2018-04-22T03:56:05.941Z,13.95
2018-04-22T03:58:17.026Z,13.94
2018-04-22T04:00:28.197Z,13.92
2018-04-22T04:02:39.385Z,13.88
2018-04-22T04:04:50.492Z,13.78
2018-04-22T04:07:01.562Z,13.76
2018-04-22T04:09:12.649Z,13.74
2018-04-22T04:11:23.802Z,13.72
2018-04-22T04:13:34.845Z,13.67
2018-04-22T04:15:45.914Z,13.69
2018-04-22T04:21:05.803Z,13.65
2018-04-22T04:23:16.845Z,13.62
2018-04-22T04:28:13.659Z,13.71
2018-04-22T04:30:24.835Z,13.76
2018-04-22T04:32:35.974Z,13.77
2018-04-22T04:34:47.046Z,13.85
2018-04-22T04:36:58.150Z,13.85
2018-04-22T04:39:09.226Z,13.90
2018-04-22T04:41:20.322Z,13.88
2018-04-22T04:43:31.408Z,13.82
2018-04-22T04:45:42.557Z,13.80
2018-04-22T04:47:53.702Z,13.87
2018-04-22T04:50:04.966Z,13.98
2018-04-22T04:52:16.101Z,14.06
2018-04-22T04:54:27.166Z,14.08
2018-04-22T04:56:38.548Z,14.11
2018-04-22T04:58:49.762Z,14.20
2018-04-22T05:01:00.848Z,14.35
2018-04-22T05:03:11.907Z,14.43
2018-04-22T05:05:22.986Z,14.55
2018-04-22T05:07:34.077Z,14.80
2018-04-22T05:09:45.141Z,15.13
2018-04-22T05:11:56.261Z,15.44
2018-04-22T05:14:07.323Z,15.74
2018-04-22T05:16:18.576Z,16.00
2018-04-22T05:18:29.639Z,16.30
2018-04-22T05:20:40.737Z,16.44
2018-04-22T05:22:51.847Z,16.56
2018-04-22T05:25:02.907Z,16.81
2018-04-22T05:27:14.123Z,17.16
2018-04-22T05:29:25.216Z,17.44
2018-04-22T05:31:36.436Z,17.80
2018-04-22T05:33:47.591Z,18.15
2018-04-22T05:35:58.761Z,18.47
2018-04-22T05:38:09.931Z,18.65
2018-04-22T05:40:20.997Z,19.05
2018-04-22T05:42:32.071Z,19.40
2018-04-22T05:44:43.134Z,19.73
2018-04-22T05:46:54.390Z,20.08
2018-04-22T05:49:07.266Z,20.45
2018-04-22T05:51:18.583Z,20.77
2018-04-22T05:53:29.665Z,20.98
2018-04-22T05:55:40.781Z,21.25
2018-04-22T05:57:51.825Z,21.58
2018-04-22T06:00:02.918Z,21.83
2018-04-22T06:02:14.016Z,22.03
2018-04-22T06:04:25.105Z,21.99
2018-04-22T06:06:36.320Z,22.11
2018-04-22T06:08:47.475Z,22.13
2018-04-22T06:10:58.720Z,22.30
2018-04-22T06:13:09.823Z,22.48
2018-04-22T06:15:20.947Z,22.50
2018-04-22T06:17:32.079Z,22.68
2018-04-22T06:19:43.213Z,22.73
2018-04-22T06:21:54.362Z,22.88
2018-04-22T06:24:05.419Z,23.11
2018-04-22T06:26:18.629Z,23.16
2018-04-22T06:28:29.756Z,23.21
2018-04-22T06:30:40.980Z,23.28
2018-04-22T06:32:52.090Z,23.41
2018-04-22T06:35:05.099Z,23.42
2018-04-22T06:37:16.226Z,23.48
2018-04-22T06:39:27.321Z,23.65
2018-04-22T06:41:38.399Z,23.75
2018-04-22T06:43:49.451Z,23.88
2018-04-22T06:46:00.594Z,24.03
2018-04-22T06:48:11.737Z,24.14
2018-04-22T06:50:25.740Z,24.27
2018-04-22T06:52:36.891Z,24.47
2018-04-22T06:54:47.954Z,24.54
2018-04-22T06:56:59.065Z,24.52
2018-04-22T06:59:11.030Z,24.57
2018-04-22T07:01:22.163Z,24.70
2018-04-22T07:03:33.271Z,24.88
2018-04-22T07:05:44.459Z,24.96
2018-04-22T07:07:55.564Z,24.98
2018-04-22T07:10:06.712Z,25.14
2018-04-22T07:12:17.810Z,25.39
2018-04-22T07:14:28.910Z,25.55
2018-04-22T07:16:40.010Z,25.71
2018-04-22T07:18:51.122Z,25.72
2018-04-22T07:21:02.179Z,25.89
2018-04-22T07:23:13.303Z,25.96
2018-04-22T07:25:26.287Z,26.17
2018-04-22T07:27:37.431Z,26.27
2018-04-22T07:29:48.603Z,26.37
2018-04-22T07:31:59.666Z,26.46
2018-04-22T07:34:11.001Z,26.50
2018-04-22T07:36:22.140Z,26.72
2018-04-22T07:38:33.304Z,26.84
2018-04-22T07:40:44.456Z,26.97
2018-04-22T07:42:55.498Z,26.98
2018-04-22T07:45:07.507Z,27.12
2018-04-22T07:47:23.420Z,27.16
2018-04-22T07:49:36.449Z,27.23
2018-04-22T07:51:47.565Z,27.27
2018-04-22T07:53:58.710Z,27.31
2018-04-22T07:56:09.792Z,27.38
2018-04-22T07:58:25.745Z,27.49
2018-04-22T08:00:36.898Z,27.46
2018-04-22T08:02:48.109Z,27.52
2018-04-22T08:04:59.254Z,27.60
2018-04-22T08:07:10.350Z,27.73
2018-04-22T08:09:21.447Z,27.71
2018-04-22T08:11:32.599Z,27.58
2018-04-22T08:13:44.574Z,27.57
2018-04-22T08:15:55.735Z,27.48
2018-04-22T08:18:06.817Z,27.20
2018-04-22T08:20:17.918Z,27.41
2018-04-22T08:22:29.060Z,27.61
2018-04-22T08:24:40.229Z,27.76
2018-04-22T08:26:51.445Z,27.78
2018-04-22T08:29:02.711Z,27.88
2018-04-22T08:31:13.820Z,27.89
2018-04-22T08:33:25.036Z,27.92
2018-04-22T08:35:36.254Z,28.07
2018-04-22T08:37:51.093Z,28.04
2018-04-22T08:40:02.208Z,27.83
2018-04-22T08:42:13.313Z,27.68
2018-04-22T08:44:24.417Z,27.45
2018-04-22T08:46:36.059Z,27.29
2018-04-22T08:48:47.137Z,27.34
2018-04-22T08:50:58.251Z,27.45
2018-04-22T08:53:09.395Z,27.58
2018-04-22T08:55:20.617Z,27.78
2018-04-22T08:57:31.811Z,27.87
2018-04-22T08:59:43.102Z,27.96
2018-04-22T09:01:54.187Z,28.08
2018-04-22T09:04:05.313Z,28.21
2018-04-22T09:06:16.402Z,28.29
2018-04-22T09:08:27.473Z,28.34
2018-04-22T09:10:38.622Z,28.43
2018-04-22T09:12:49.695Z,28.50
2018-04-22T09:15:00.834Z,28.55
2018-04-22T09:17:11.970Z,28.56
2018-04-22T09:19:23.164Z,28.55
2018-04-22T09:21:34.265Z,28.53
2018-04-22T09:23:45.504Z,28.66
2018-04-22T09:25:56.622Z,28.82
2018-04-22T09:28:07.702Z,28.99
2018-04-22T09:30:18.777Z,29.16
2018-04-22T09:32:29.850Z,29.31
2018-04-22T09:34:41.105Z,29.33
2018-04-22T09:36:52.270Z,29.29
2018-04-22T09:39:03.510Z,29.26
2018-04-22T09:41:14.779Z,29.30
2018-04-22T09:43:26.794Z,29.36
2018-04-22T09:45:37.885Z,29.37
2018-04-22T09:47:49.185Z,29.31
2018-04-22T09:50:04.911Z,29.30
2018-04-22T09:52:16.043Z,29.34
2018-04-22T09:54:27.194Z,29.39
2018-04-22T09:56:38.334Z,29.46
2018-04-22T09:58:49.469Z,29.41
2018-04-22T10:01:02.407Z,29.45
2018-04-22T10:03:13.583Z,29.55
2018-04-22T10:05:24.700Z,29.63
2018-04-22T10:07:35.764Z,29.67
2018-04-22T10:09:46.874Z,29.66
2018-04-22T10:11:58.015Z,29.75
2018-04-22T10:14:09.312Z,29.79
2018-04-22T10:16:21.459Z,29.87
2018-04-22T10:18:32.719Z,29.84
2018-04-22T10:20:43.765Z,29.82
2018-04-22T10:22:54.874Z,29.86
2018-04-22T10:25:06.842Z,29.86
2018-04-22T10:27:18.890Z,29.92
2018-04-22T10:29:30.290Z,30.05
2018-04-22T10:31:41.425Z,30.16
2018-04-22T10:33:53.263Z,30.26
2018-04-22T10:36:05.354Z,30.23
2018-04-22T10:38:20.285Z,30.16
2018-04-22T10:40:33.035Z,30.15
2018-04-22T10:42:44.151Z,30.03
2018-04-22T10:44:56.214Z,29.92
2018-04-22T10:47:07.341Z,29.90
2018-04-22T10:49:18.456Z,29.87
2018-04-22T10:51:29.623Z,29.89
2018-04-22T10:53:40.768Z,29.91
2018-04-22T10:55:52.015Z,29.89
2018-04-22T10:58:03.164Z,29.91
2018-04-22T11:00:15.150Z,29.98
2018-04-22T11:02:26.233Z,29.96
2018-04-22T11:04:37.421Z,29.91
2018-04-22T11:06:48.486Z,29.96
2018-04-22T11:08:59.630Z,30.02
2018-04-22T11:11:10.753Z,30.09
2018-04-22T11:13:21.931Z,30.12
2018-04-22T11:15:33.076Z,29.98
2018-04-22T11:17:44.150Z,29.89
2018-04-22T11:19:55.228Z,29.92
2018-04-22T11:22:06.369Z,29.97
2018-04-22T11:24:17.459Z,30.01
2018-04-22T11:26:28.623Z,29.97
2018-04-22T11:28:39.734Z,29.90
2018-04-22T11:30:50.860Z,29.85
2018-04-22T11:33:02.040Z,29.85
2018-04-22T11:35:13.123Z,29.93
2018-04-22T11:37:24.232Z,30.00
2018-04-22T11:39:35.342Z,30.03
2018-04-22T11:41:46.426Z,30.00
2018-04-22T11:43:57.629Z,30.11
2018-04-22T11:46:08.732Z,30.21
2018-04-22T11:48:19.873Z,30.24
2018-04-22T11:50:30.945Z,30.29
2018-04-22T11:52:42.109Z,30.34
2018-04-22T11:54:53.198Z,30.21
2018-04-22T11:57:04.303Z,30.15
2018-04-22T11:59:15.466Z,30.20
2018-04-22T12:01:26.589Z,30.18
2018-04-22T12:03:37.907Z,30.23
2018-04-22T12:05:51.769Z,30.09
2018-04-22T12:08:02.846Z,30.10
2018-04-22T12:10:14.022Z,30.21
2018-04-22T12:12:25.105Z,30.14
2018-04-22T12:14:36.220Z,30.17
2018-04-22T12:16:47.400Z,30.22
2018-04-22T12:18:58.496Z,30.29
2018-04-22T12:21:10.533Z,30.27
2018-04-22T12:23:21.681Z,30.28
2018-04-22T12:25:32.809Z,30.31
2018-04-22T12:27:44.026Z,30.19
2018-04-22T12:29:55.113Z,30.15
2018-04-22T12:32:06.191Z,30.15
2018-04-22T12:34:17.321Z,30.14
2018-04-22T12:36:28.395Z,30.09
2018-04-22T12:38:39.564Z,30.06
2018-04-22T12:40:50.685Z,30.01
2018-04-22T12:43:01.790Z,29.94
2018-04-22T12:45:12.930Z,29.92
2018-04-22T12:47:24.098Z,29.91
2018-04-22T12:49:35.221Z,29.88
2018-04-22T12:51:46.295Z,29.87
2018-04-22T12:54:04.836Z,29.73
2018-04-22T12:56:15.944Z,29.57
2018-04-22T12:58:27.012Z,29.52
2018-04-22T13:00:38.309Z,29.53
2018-04-22T13:02:49.457Z,29.56
2018-04-22T13:05:00.604Z,29.58
2018-04-22T13:07:11.838Z,29.61
2018-04-22T13:09:22.933Z,29.57
2018-04-22T13:11:34.898Z,29.59
2018-04-22T13:13:46.030Z,29.54
2018-04-22T13:15:57.105Z,29.53
2018-04-22T13:18:08.242Z,29.51
2018-04-22T13:20:19.290Z,29.54
2018-04-22T13:22:30.443Z,29.56
2018-04-22T13:24:41.553Z,29.58
2018-04-22T13:26:52.637Z,29.52
2018-04-22T13:29:03.852Z,29.50
2018-04-22T13:31:14.946Z,29.42
2018-04-22T13:33:26.168Z,29.41
2018-04-22T13:35:37.361Z,29.35
2018-04-22T13:37:48.554Z,29.33
2018-04-22T13:39:59.727Z,29.26
2018-04-22T13:42:10.812Z,29.25
2018-04-22T13:44:21.930Z,29.17
2018-04-22T13:46:33.041Z,29.05
2018-04-22T13:48:44.139Z,29.06
2018-04-22T13:50:55.223Z,29.13
2018-04-22T13:53:06.337Z,29.08
2018-04-22T13:55:17.709Z,29.12
2018-04-22T13:57:28.805Z,29.18
2018-04-22T13:59:39.901Z,29.17
2018-04-22T14:01:50.972Z,29.11
2018-04-22T14:04:02.175Z,29.08
2018-04-22T14:06:13.337Z,29.01
2018-04-22T14:08:24.416Z,28.98
2018-04-22T14:10:35.534Z,28.91
2018-04-22T14:12:46.597Z,28.89
2018-04-22T14:14:57.778Z,28.86
2018-04-22T14:17:08.841Z,28.87
2018-04-22T14:19:19.990Z,28.90
2018-04-22T14:21:31.124Z,28.97
2018-04-22T14:23:42.329Z,29.03
2018-04-22T14:25:53.773Z,29.02
2018-04-22T14:28:04.846Z,29.00
2018-04-22T14:30:15.991Z,29.02
2018-04-22T14:32:27.021Z,29.03
2018-04-22T14:34:38.184Z,29.06
2018-04-22T14:36:49.290Z,29.08
2018-04-22T14:39:00.418Z,29.06
2018-04-22T14:41:11.558Z,28.97
2018-04-22T14:43:22.670Z,28.86
2018-04-22T14:45:46.051Z,28.74
2018-04-22T14:47:57.110Z,28.76
2018-04-22T14:50:08.250Z,28.71
2018-04-22T14:52:19.368Z,28.74
2018-04-22T14:54:30.447Z,28.72
2018-04-22T14:56:41.553Z,28.74
2018-04-22T14:58:52.606Z,28.76
2018-04-22T15:01:03.777Z,28.82
2018-04-22T15:03:14.875Z,28.78
2018-04-22T15:05:26.010Z,28.72
2018-04-22T15:07:37.070Z,28.72
2018-04-22T15:09:48.258Z,28.75
2018-04-22T15:12:02.199Z,28.70
2018-04-22T15:14:13.305Z,28.59
2018-04-22T15:16:24.487Z,28.58
2018-04-22T15:18:35.597Z,28.53
2018-04-22T15:20:46.657Z,28.49
2018-04-22T15:23:01.475Z,28.49
2018-04-22T15:25:12.637Z,28.53
2018-04-22T15:27:24.050Z,28.54
2018-04-22T15:29:37.079Z,28.58
2018-04-22T15:31:48.166Z,28.58
2018-04-22T15:33:59.269Z,28.54
2018-04-22T15:36:10.349Z,28.61
2018-04-22T15:38:21.501Z,28.59
2018-04-22T15:40:32.677Z,28.56
2018-04-22T15:42:45.592Z,28.52
2018-04-22T15:44:56.625Z,28.56
2018-04-22T15:47:07.705Z,28.56
2018-04-22T15:49:18.841Z,28.55
2018-04-22T15:51:29.986Z,28.50
2018-04-22T15:53:41.129Z,28.50
2018-04-22T15:55:52.344Z,28.45
2018-04-22T15:58:03.420Z,28.42
2018-04-22T16:00:14.607Z,28.43
2018-04-22T16:02:25.683Z,28.44
2018-04-22T16:04:36.781Z,28.45
2018-04-22T16:06:47.897Z,28.42
2018-04-22T16:08:58.982Z,28.38
2018-04-22T16:11:10.134Z,28.42
2018-04-22T16:13:21.217Z,28.39
2018-04-22T16:15:32.365Z,28.35
2018-04-22T16:17:43.493Z,28.36
2018-04-22T16:19:54.602Z,28.36
2018-04-22T16:22:05.695Z,28.36
2018-04-22T16:24:16.829Z,28.35
2018-04-22T16:26:27.904Z,28.34
2018-04-22T16:28:39.010Z,28.33
2018-04-22T16:30:51.214Z,28.32
2018-04-22T16:33:02.371Z,28.28
2018-04-22T16:35:13.531Z,28.24
2018-04-22T16:37:24.586Z,28.19
2018-04-22T16:39:35.700Z,28.14
2018-04-22T16:41:46.925Z,28.08
2018-04-22T16:43:58.171Z,28.03
2018-04-22T16:46:09.263Z,27.97
2018-04-22T16:48:20.514Z,27.95
2018-04-22T16:50:31.625Z,27.92
2018-04-22T16:52:42.803Z,27.92
2018-04-22T16:54:53.963Z,27.89
2018-04-22T16:57:05.101Z,27.86
2018-04-22T16:59:16.201Z,27.84
2018-04-22T17:01:27.301Z,27.80
2018-04-22T17:03:38.598Z,27.80
2018-04-22T17:05:49.779Z,27.79
2018-04-22T17:08:00.975Z,27.71
2018-04-22T17:10:12.199Z,27.55
2018-04-22T17:12:23.296Z,27.26
2018-04-22T17:14:34.461Z,27.06
2018-04-22T17:16:45.534Z,26.91
2018-04-22T17:18:56.712Z,26.79
2018-04-22T17:21:07.861Z,26.72
2018-04-22T17:23:18.964Z,26.66
2018-04-22T17:25:30.041Z,26.57
2018-04-22T17:27:41.157Z,26.45
2018-04-22T17:29:52.350Z,26.30
2018-04-22T17:32:03.570Z,26.18
2018-04-22T17:34:14.689Z,26.04
2018-04-22T17:36:25.788Z,25.91
2018-04-22T17:38:36.994Z,25.78
2018-04-22T17:40:48.279Z,25.63
2018-04-22T17:42:59.339Z,25.46
2018-04-22T17:45:10.405Z,25.36
2018-04-22T17:47:21.496Z,25.33
2018-04-22T17:49:32.680Z,25.35
2018-04-22T17:51:43.829Z,25.35
2018-04-22T17:53:54.925Z,25.36
2018-04-22T17:56:06.083Z,25.36
2018-04-22T17:58:17.214Z,25.37
2018-04-22T18:00:28.354Z,25.38
2018-04-22T18:02:39.477Z,25.37
2018-04-22T18:04:50.705Z,25.29
2018-04-22T18:07:01.852Z,25.18
2018-04-22T18:09:13.109Z,25.11
2018-04-22T18:11:24.285Z,25.06
2018-04-22T18:13:35.401Z,24.96
2018-04-22T18:15:46.626Z,24.85
2018-04-22T18:17:57.744Z,24.80
2018-04-22T18:20:08.897Z,24.70
2018-04-22T18:22:20.011Z,24.57
2018-04-22T18:24:31.130Z,24.38
2018-04-22T18:26:42.214Z,24.28
2018-04-22T18:28:53.318Z,24.19
2018-04-22T18:31:04.492Z,24.08
2018-04-22T18:33:15.619Z,24.12
2018-04-22T18:35:26.793Z,24.11
2018-04-22T18:37:37.898Z,23.99
2018-04-22T18:39:49.145Z,23.97
2018-04-22T18:42:00.253Z,23.89
2018-04-22T18:44:11.364Z,23.84
2018-04-22T18:46:22.675Z,23.81
2018-04-22T18:48:33.801Z,23.85
2018-04-22T18:50:44.913Z,23.92
2018-04-22T18:52:56.021Z,23.96
2018-04-22T18:55:07.191Z,24.01
2018-04-22T18:57:18.434Z,24.06
2018-04-22T18:59:29.722Z,24.10
2018-04-22T19:01:40.928Z,24.12
2018-04-22T19:03:52.068Z,24.15
2018-04-22T19:06:03.282Z,24.16
2018-04-22T19:08:14.393Z,24.09
2018-04-22T19:10:25.541Z,24.04
2018-04-22T19:12:36.662Z,23.99
2018-04-22T19:14:47.741Z,23.98
2018-04-22T19:16:58.910Z,23.96
2018-04-22T19:19:09.995Z,23.91
2018-04-22T19:21:21.281Z,23.91
2018-04-22T19:23:32.398Z,23.89
2018-04-22T19:25:43.470Z,23.94
2018-04-22T19:27:54.638Z,23.95
2018-04-22T19:30:05.746Z,23.95
2018-04-22T19:32:16.891Z,23.96
2018-04-22T19:34:27.976Z,23.96
2018-04-22T19:36:39.094Z,23.90
2018-04-22T19:38:50.227Z,23.83
2018-04-22T19:41:01.371Z,23.74
2018-04-22T19:43:12.507Z,23.62
2018-04-22T19:45:23.598Z,23.47
2018-04-22T19:47:34.684Z,23.38
2018-04-22T19:49:45.767Z,23.28
2018-04-22T19:51:56.858Z,23.04
2018-04-22T19:54:07.973Z,22.95
2018-04-22T19:56:19.055Z,22.80
2018-04-22T19:58:30.194Z,22.65
2018-04-22T20:00:41.375Z,22.57
2018-04-22T20:02:52.556Z,22.45
2018-04-22T20:05:03.831Z,22.35
2018-04-22T20:07:15.017Z,22.27
2018-04-22T20:09:26.161Z,22.17
2018-04-22T20:11:37.383Z,22.05
2018-04-22T20:13:48.490Z,21.98
2018-04-22T20:15:59.577Z,21.91
2018-04-22T20:18:10.650Z,21.80
2018-04-22T20:20:21.730Z,21.76
2018-04-22T20:22:32.963Z,21.67
2018-04-22T20:24:44.127Z,21.63
2018-04-22T20:26:55.221Z,21.54
2018-04-22T20:29:06.342Z,21.38
2018-04-22T20:31:17.475Z,21.27
2018-04-22T20:33:28.552Z,21.24
2018-04-22T20:35:39.670Z,21.19
2018-04-22T20:37:50.772Z,21.05
2018-04-22T20:40:01.877Z,20.88
2018-04-22T20:42:13.063Z,20.79
2018-04-22T20:44:24.144Z,20.66
2018-04-22T20:46:35.298Z,20.60
2018-04-22T20:48:46.350Z,20.57
2018-04-22T20:50:57.503Z,20.56
2018-04-22T20:53:08.589Z,20.53
2018-04-22T20:55:19.672Z,20.42
2018-04-22T20:57:30.758Z,20.30
2018-04-22T20:59:41.938Z,20.33
2018-04-22T21:01:53.134Z,20.32
2018-04-22T21:04:04.203Z,20.24
2018-04-22T21:06:15.498Z,20.18
2018-04-22T21:08:26.590Z,20.09
2018-04-22T21:10:37.690Z,20.06
2018-04-22T21:12:48.793Z,20.06
2018-04-22T21:14:59.858Z,20.08
2018-04-22T21:17:11.025Z,20.07
2018-04-22T21:19:22.149Z,20.04
2018-04-22T21:21:33.305Z,19.94
2018-04-22T21:23:44.401Z,19.88
2018-04-22T21:25:55.526Z,19.78
2018-04-22T21:28:06.607Z,19.75
2018-04-22T21:30:17.953Z,19.66
2018-04-22T21:32:29.029Z,19.62
2018-04-22T21:34:40.134Z,19.62
2018-04-22T21:36:51.209Z,19.54
2018-04-22T21:39:02.298Z,19.54
2018-04-22T21:41:13.439Z,19.48
2018-04-22T21:43:24.567Z,19.52
2018-04-22T21:45:35.698Z,19.56
2018-04-22T21:47:46.834Z,19.55
2018-04-22T21:49:57.943Z,19.59
2018-04-22T21:52:09.078Z,19.60
2018-04-22T21:54:20.149Z,19.57
2018-04-22T21:56:31.289Z,19.60
2018-04-22T21:58:42.351Z,19.61
2018-04-22T22:00:53.505Z,19.65
2018-04-22T22:03:04.615Z,19.62
2018-04-22T22:05:15.785Z,19.62
2018-04-22T22:07:26.874Z,19.67
2018-04-22T22:09:37.957Z,19.65
2018-04-22T22:11:49.046Z,19.61
2018-04-22T22:14:00.098Z,19.55
2018-04-22T22:16:11.243Z,19.57
2018-04-22T22:18:22.327Z,19.58
2018-04-22T22:20:33.449Z,19.58
2018-04-22T22:22:44.546Z,19.58
2018-04-22T22:24:55.720Z,19.57
2018-04-22T22:27:06.794Z,19.58
2018-04-22T22:29:17.885Z,19.59
2018-04-22T22:31:28.978Z,19.49
2018-04-22T22:33:40.062Z,19.49
2018-04-22T22:35:51.134Z,19.49
2018-04-22T22:38:02.231Z,19.44
2018-04-22T22:40:13.491Z,19.41
2018-04-22T22:42:24.558Z,19.44
2018-04-22T22:44:35.805Z,19.46
2018-04-22T22:46:46.881Z,19.41
2018-04-22T22:48:57.996Z,19.37
2018-04-22T22:51:09.072Z,19.43
2018-04-22T22:53:20.134Z,19.49
2018-04-22T22:55:31.325Z,19.49
2018-04-22T22:57:42.430Z,19.45
2018-04-22T22:59:53.630Z,19.49
2018-04-22T23:02:04.730Z,19.49
2018-04-22T23:04:15.892Z,19.52
2018-04-22T23:06:26.992Z,19.56
2018-04-22T23:08:38.094Z,19.57
2018-04-22T23:10:49.137Z,19.59
2018-04-22T23:13:00.259Z,19.61
2018-04-22T23:15:11.417Z,19.60
2018-04-22T23:17:22.521Z,19.61
2018-04-22T23:19:33.624Z,19.58
2018-04-22T23:21:44.745Z,19.64
2018-04-22T23:23:55.814Z,19.70
2018-04-22T23:26:06.881Z,19.77
2018-04-22T23:28:17.981Z,19.75
2018-04-22T23:30:29.078Z,19.76
2018-04-22T23:32:40.343Z,19.79
2018-04-22T23:34:51.471Z,19.81
2018-04-22T23:37:02.534Z,19.84
2018-04-22T23:39:13.622Z,19.84
2018-04-22T23:41:24.758Z,19.83
2018-04-22T23:43:36.014Z,19.78
2018-04-22T23:45:47.078Z,19.79
2018-04-22T23:47:58.196Z,19.79
2018-04-22T23:50:09.314Z,19.84
2018-04-22T23:52:20.428Z,19.88
2018-04-22T23:54:31.569Z,19.90
2018-04-22T23:56:42.618Z,19.88
2018-04-22T23:58:53.897Z,19.87
